Airfield :
LOGIN :

Register | Disclaimer

   EN    FR    IT 

 










Legend :    VFR   Marginal VFR   IFR   Intensive IFR   Very Intensive IFR
Visi :
Ceiling :
>= 8 km
>= 3000ft
5 to 8 km
1000 to 3000 ft
1500m to 5 km
500 to 1000 ft
800 to 1500m
200 to 500 ft
< 800m
< 200 ft
Symbols :   Thunderstorms  Fog  Heavy snow  Heavy precipitations  Wind > 20 kt
SIGMETs :     Misc.  Thunderstorms  Icing  Turbulence  Mountain Waves  Volcanic Ashes






- Airport Elevation : 65 ft
- IATA code : PIK


EGPK - Glasgow Prestwick

CURRENT METAR :
  • 081220Z 24009KT 9999 FEW015 13/07 Q1024

EXPIRED METARs :
  • 081150Z 23010KT 9999 FEW015 13/07 Q1024
  • 081120Z 24012KT 9999 FEW015 12/07 Q1024
  • 081050Z 24010KT 9999 FEW014 SCT045 12/07 Q1025
  • 081020Z 24011KT 9999 FEW014 SCT045 12/06 Q1025
  • 080950Z 23010KT 9999 FEW014 SCT045 13/06 Q1024

TAF TAF EGPK
Valid from the 08 at 12:00 until the 09 at 12:00 UTC


081056Z 0812/0912 24010KT 9999 FEW030
BECMG 0818/0821 VRB02KT
TEMPO 0818/0906 6000 -RADZ BKN012
PROB30
TEMPO 0819/0904 3000 RADZ BKN004
BECMG 0903/0906 05010KT
BECMG 0909/0912 14007KT



MET'MAP, your aeronautical weather chart ! - Copyright ORBIFLY December 2007 - Disclaimer

ORBIFLY MET'MAP TEAM :

Programming & Development : Alexandra Zaïnal
Concept & original design : Baudouin d'Aumeries
Assistance for programming : Marc-Olivier Méhu
Technical & hardware support : Manuel Goepfert

Contact : metmap@orbifly.com




SOURCES & CREDITS :

   NOAA